createdAt,value
2022-12-25T00:01:10.315Z,63.85
2022-12-25T00:03:37.966Z,64.29
2022-12-25T00:06:05.161Z,63.54
2022-12-25T00:08:32.439Z,63.67
2022-12-25T00:11:00.039Z,64.17
2022-12-25T00:13:26.724Z,63.47
2022-12-25T00:15:53.403Z,63.85
2022-12-25T00:18:20.011Z,64.65
2022-12-25T00:20:56.713Z,64.22
2022-12-25T00:23:23.310Z,64.96
2022-12-25T00:25:49.908Z,64.48
2022-12-25T00:28:16.604Z,65.02
2022-12-25T00:30:43.160Z,64.92
2022-12-25T00:33:09.703Z,64.59
2022-12-25T00:35:36.284Z,64.63
2022-12-25T00:38:02.839Z,64.99
2022-12-25T00:40:29.401Z,64.17
2022-12-25T00:42:55.999Z,64.14
2022-12-25T00:45:22.732Z,63.90
2022-12-25T00:47:49.347Z,63.91
2022-12-25T00:50:15.870Z,63.89
2022-12-25T00:52:42.452Z,63.96
2022-12-25T00:55:09.257Z,64.23
2022-12-25T00:57:35.854Z,64.81
2022-12-25T01:00:02.653Z,65.02
2022-12-25T01:02:29.328Z,66.02
2022-12-25T01:04:57.286Z,65.57
2022-12-25T01:07:25.889Z,65.72
2022-12-25T01:10:11.094Z,65.76
2022-12-25T01:12:40.803Z,65.69
2022-12-25T01:15:09.443Z,65.76
2022-12-25T01:17:36.254Z,65.92
2022-12-25T01:20:03.181Z,65.83
2022-12-25T01:22:29.829Z,65.44
2022-12-25T01:24:56.355Z,65.26
2022-12-25T01:27:22.888Z,65.71
2022-12-25T01:29:49.431Z,64.80
2022-12-25T01:32:16.006Z,65.07
2022-12-25T01:34:42.582Z,64.27
2022-12-25T01:37:09.219Z,64.43
2022-12-25T01:39:35.819Z,63.53
2022-12-25T01:42:02.343Z,64.31
2022-12-25T01:44:37.805Z,63.79
2022-12-25T01:47:05.712Z,63.20
2022-12-25T01:49:35.013Z,64.28
2022-12-25T01:52:12.158Z,63.28
2022-12-25T01:54:43.539Z,63.71
2022-12-25T01:57:17.058Z,64.94
2022-12-25T01:59:44.108Z,65.09
2022-12-25T02:02:11.818Z,65.08
2022-12-25T02:05:23.612Z,65.94
2022-12-25T02:07:51.155Z,66.42
2022-12-25T02:10:18.261Z,66.83
2022-12-25T02:12:46.197Z,67.05
2022-12-25T02:15:17.268Z,68.35
2022-12-25T02:18:25.798Z,69.15
2022-12-25T02:21:14.003Z,67.45
2022-12-25T02:24:15.114Z,67.91
2022-12-25T02:27:02.898Z,68.58
2022-12-25T02:29:47.981Z,68.47
2022-12-25T02:32:25.113Z,69.26
2022-12-25T02:34:54.411Z,69.04
2022-12-25T02:37:53.617Z,68.05
2022-12-25T02:40:29.064Z,68.06
2022-12-25T02:43:49.035Z,68.91
2022-12-25T02:46:37.771Z,68.75
2022-12-25T02:49:28.715Z,67.78
2022-12-25T02:52:20.778Z,67.73
2022-12-25T02:55:16.767Z,67.24
2022-12-25T02:58:08.985Z,66.82
2022-12-25T03:01:00.791Z,66.60
2022-12-25T03:03:51.532Z,67.02
2022-12-25T03:06:39.093Z,66.63
2022-12-25T03:09:27.615Z,67.63
2022-12-25T03:12:13.220Z,68.73
2022-12-25T03:14:58.457Z,69.52
2022-12-25T03:17:25.304Z,69.71
2022-12-25T03:20:10.523Z,70.46
2022-12-25T03:22:56.414Z,71.17
2022-12-25T03:25:41.683Z,71.18
2022-12-25T03:28:08.231Z,71.03
2022-12-25T03:31:17.213Z,71.41
2022-12-25T03:34:46.768Z,70.68
2022-12-25T03:37:31.645Z,70.66
2022-12-25T03:40:42.135Z,70.48
2022-12-25T03:43:39.496Z,70.71
2022-12-25T03:46:29.728Z,70.02
2022-12-25T03:49:23.652Z,70.65
2022-12-25T03:52:10.239Z,69.84
2022-12-25T03:54:57.844Z,69.66
2022-12-25T03:57:43.304Z,68.85
2022-12-25T04:00:28.961Z,68.78
2022-12-25T04:03:13.880Z,67.72
2022-12-25T04:05:59.121Z,66.74
2022-12-25T04:08:43.897Z,66.35
2022-12-25T04:11:28.851Z,66.77
2022-12-25T04:14:13.908Z,65.79
2022-12-25T04:16:58.791Z,66.77
2022-12-25T04:19:43.945Z,66.68
2022-12-25T04:22:29.219Z,66.45
2022-12-25T04:25:14.392Z,66.81
2022-12-25T04:27:59.278Z,67.09
2022-12-25T04:30:44.606Z,67.12
2022-12-25T04:33:29.399Z,67.45
2022-12-25T04:36:11.994Z,67.26
2022-12-25T04:38:40.236Z,66.52
2022-12-25T04:41:08.620Z,66.15
2022-12-25T04:43:35.381Z,67.62
2022-12-25T04:46:03.385Z,67.90
2022-12-25T04:48:32.212Z,67.89
2022-12-25T04:50:59.000Z,68.30
2022-12-25T04:53:25.592Z,69.42
2022-12-25T04:56:01.204Z,68.85
2022-12-25T04:58:27.753Z,69.58
2022-12-25T05:00:54.261Z,69.22
2022-12-25T05:03:20.789Z,70.19
2022-12-25T05:05:48.737Z,69.96
2022-12-25T05:08:15.244Z,70.47
2022-12-25T05:10:41.780Z,70.19
2022-12-25T05:13:08.338Z,70.11
2022-12-25T05:15:34.948Z,68.95
2022-12-25T05:18:01.514Z,68.61
2022-12-25T05:20:28.070Z,68.22
2022-12-25T05:22:54.580Z,67.69
2022-12-25T05:25:21.126Z,67.15
2022-12-25T05:27:53.780Z,67.43
2022-12-25T05:30:20.637Z,66.93
2022-12-25T05:32:48.231Z,67.30
2022-12-25T05:35:14.808Z,67.24
2022-12-25T05:37:41.322Z,66.54
2022-12-25T05:40:08.611Z,66.84
2022-12-25T05:42:35.181Z,66.89
2022-12-25T05:45:01.745Z,67.36
2022-12-25T05:47:28.251Z,68.38
2022-12-25T05:49:54.778Z,68.82
2022-12-25T05:52:21.292Z,68.19
2022-12-25T05:54:47.919Z,68.32
2022-12-25T05:57:14.451Z,68.40
2022-12-25T05:59:41.034Z,68.37
2022-12-25T06:02:07.807Z,68.71
2022-12-25T06:04:34.364Z,68.94
2022-12-25T06:07:00.887Z,68.37
2022-12-25T06:09:27.443Z,67.94
2022-12-25T06:11:54.062Z,68.24
2022-12-25T06:14:20.624Z,69.13
2022-12-25T06:16:51.768Z,68.87
2022-12-25T06:19:19.234Z,68.90
2022-12-25T06:21:45.792Z,68.86
2022-12-25T06:24:19.220Z,69.62
2022-12-25T06:26:47.968Z,70.22
2022-12-25T06:29:14.840Z,69.23
2022-12-25T06:31:41.701Z,68.70
2022-12-25T06:34:08.588Z,70.00
2022-12-25T06:36:37.729Z,70.30
2022-12-25T06:39:04.349Z,70.08
2022-12-25T06:41:31.488Z,69.83
2022-12-25T06:43:59.990Z,69.90
2022-12-25T06:46:28.606Z,69.72
2022-12-25T06:48:55.694Z,69.65
2022-12-25T06:51:28.583Z,70.18
2022-12-25T06:53:55.773Z,70.79
2022-12-25T06:56:25.557Z,71.11
2022-12-25T06:58:55.426Z,70.55
2022-12-25T07:01:26.617Z,71.10
2022-12-25T07:03:57.789Z,71.10
2022-12-25T07:06:24.414Z,71.36
2022-12-25T07:08:51.188Z,70.91
2022-12-25T07:11:18.132Z,70.71
2022-12-25T07:13:44.709Z,70.21
2022-12-25T07:16:12.400Z,70.12
2022-12-25T07:18:39.612Z,70.30
2022-12-25T07:21:17.606Z,69.44
2022-12-25T07:23:46.052Z,69.63
2022-12-25T07:26:13.671Z,70.73
2022-12-25T07:28:40.670Z,70.39
2022-12-25T07:31:10.880Z,70.66
2022-12-25T07:33:37.540Z,70.53
2022-12-25T07:36:05.521Z,69.97
2022-12-25T07:38:32.841Z,69.66
2022-12-25T07:40:59.576Z,70.33
2022-12-25T07:43:26.444Z,71.14
2022-12-25T07:45:59.864Z,70.56
2022-12-25T07:48:27.807Z,70.73
2022-12-25T07:51:05.774Z,71.00
2022-12-25T07:53:33.171Z,71.15
2022-12-25T07:56:08.182Z,70.73
2022-12-25T07:58:35.143Z,71.03
2022-12-25T08:01:07.045Z,71.37
2022-12-25T08:03:35.547Z,71.40
2022-12-25T08:06:04.529Z,71.33
2022-12-25T08:08:31.193Z,71.79
2022-12-25T08:10:57.865Z,72.07
2022-12-25T08:13:24.505Z,71.88
2022-12-25T08:15:51.194Z,72.16
2022-12-25T08:18:17.761Z,72.63
2022-12-25T08:20:44.283Z,72.79
2022-12-25T08:23:10.873Z,73.24
2022-12-25T08:25:37.448Z,73.09
2022-12-25T08:28:04.152Z,74.01
2022-12-25T08:30:30.794Z,74.73
2022-12-25T08:32:57.409Z,73.84
2022-12-25T08:35:24.172Z,74.35
2022-12-25T08:37:50.814Z,74.11
2022-12-25T08:40:18.007Z,73.42
2022-12-25T08:42:44.664Z,72.68
2022-12-25T08:45:11.571Z,71.79
2022-12-25T08:47:38.110Z,72.01
2022-12-25T08:50:05.476Z,71.45
2022-12-25T08:52:32.201Z,70.37
2022-12-25T08:54:58.779Z,70.34
2022-12-25T08:57:25.373Z,70.25
2022-12-25T08:59:51.910Z,70.11
2022-12-25T09:02:18.946Z,70.15
2022-12-25T09:04:46.743Z,71.10
2022-12-25T09:07:13.399Z,71.61
2022-12-25T09:09:40.008Z,71.11
2022-12-25T09:12:06.843Z,71.37
2022-12-25T09:14:33.348Z,71.50
2022-12-25T09:16:59.915Z,71.22
2022-12-25T09:19:26.463Z,70.80
2022-12-25T09:21:52.989Z,69.99
2022-12-25T09:24:20.674Z,70.30
2022-12-25T09:26:47.214Z,69.37
2022-12-25T09:29:14.760Z,68.90
2022-12-25T09:31:42.232Z,70.09
2022-12-25T09:34:13.787Z,69.67
2022-12-25T09:36:43.600Z,69.26
2022-12-25T09:39:10.139Z,69.91
2022-12-25T09:41:53.661Z,69.51
2022-12-25T09:44:26.418Z,68.29
2022-12-25T09:47:01.608Z,68.60
2022-12-25T09:49:43.616Z,68.72
2022-12-25T09:52:15.908Z,68.24
2022-12-25T09:54:48.437Z,68.69
2022-12-25T09:57:15.765Z,67.61
2022-12-25T09:59:44.794Z,67.80
2022-12-25T10:02:29.629Z,67.11
2022-12-25T10:05:17.689Z,66.96
2022-12-25T10:07:57.183Z,65.91
2022-12-25T10:10:49.876Z,66.03
2022-12-25T10:13:46.538Z,64.81
2022-12-25T10:16:20.177Z,64.53
2022-12-25T10:19:04.892Z,63.81
2022-12-25T10:21:31.935Z,61.79
2022-12-25T10:23:58.470Z,63.99
2022-12-25T10:26:26.330Z,64.30
2022-12-25T10:29:19.515Z,63.83
2022-12-25T10:31:48.682Z,62.86
2022-12-25T10:34:16.379Z,64.13
2022-12-25T10:36:45.928Z,63.29
2022-12-25T10:39:20.677Z,63.80
2022-12-25T10:42:18.307Z,63.49
2022-12-25T10:44:57.748Z,64.25
2022-12-25T10:47:31.129Z,63.86
2022-12-25T10:49:58.818Z,64.27
2022-12-25T10:52:28.338Z,65.22
2022-12-25T10:54:55.653Z,65.14
2022-12-25T10:57:24.871Z,64.90
2022-12-25T10:59:56.087Z,65.57
2022-12-25T11:02:36.242Z,65.30
2022-12-25T11:05:09.215Z,64.96
2022-12-25T11:10:20.049Z,65.23
2022-12-25T11:12:47.067Z,65.24
2022-12-25T11:18:22.919Z,65.99
2022-12-25T11:23:26.532Z,64.98
2022-12-25T11:26:06.697Z,64.84
2022-12-25T11:28:37.064Z,65.51
2022-12-25T11:31:19.735Z,64.82
2022-12-25T11:34:07.646Z,65.21
2022-12-25T11:36:49.442Z,65.17
2022-12-25T11:39:25.026Z,65.73
2022-12-25T11:41:56.560Z,65.76
2022-12-25T11:44:35.315Z,65.44
2022-12-25T11:47:13.009Z,65.85
2022-12-25T11:50:08.057Z,65.40
2022-12-25T11:52:38.890Z,66.21
2022-12-25T11:55:39.769Z,66.17
2022-12-25T12:06:43.686Z,66.11
2022-12-25T12:18:01.750Z,66.81
2022-12-25T12:23:35.827Z,66.86
2022-12-25T12:31:52.783Z,67.79
2022-12-25T12:34:26.860Z,67.94
2022-12-25T12:45:16.994Z,68.47
2022-12-25T12:47:49.682Z,68.67
2022-12-25T12:50:31.608Z,67.59
2022-12-25T12:52:58.915Z,68.71
2022-12-25T12:55:43.726Z,68.31
2022-12-25T12:58:33.195Z,69.25
2022-12-25T13:01:18.172Z,68.53
2022-12-25T13:15:51.942Z,70.08
2022-12-25T13:18:19.292Z,70.02
2022-12-25T13:20:54.884Z,70.78
2022-12-25T13:23:32.650Z,71.02
2022-12-25T13:26:20.729Z,70.92
2022-12-25T13:28:47.594Z,70.82
2022-12-25T13:31:25.760Z,71.02
2022-12-25T13:34:16.473Z,70.37
2022-12-25T13:36:43.506Z,70.69
2022-12-25T13:39:16.831Z,70.74
2022-12-25T13:42:08.632Z,71.42
2022-12-25T13:44:47.057Z,71.19
2022-12-25T13:47:26.072Z,71.69
2022-12-25T13:49:55.314Z,72.01
2022-12-25T13:52:27.485Z,71.78
2022-12-25T13:55:20.522Z,71.86
2022-12-25T13:57:59.321Z,72.26
2022-12-25T14:00:32.444Z,72.43
2022-12-25T14:02:59.699Z,72.25
2022-12-25T14:05:42.348Z,72.98
2022-12-25T14:08:27.517Z,72.52
2022-12-25T14:10:54.449Z,72.88
2022-12-25T14:13:28.440Z,73.27
2022-12-25T14:15:56.642Z,73.48
2022-12-25T14:18:24.764Z,73.68
2022-12-25T14:21:21.675Z,74.14
2022-12-25T14:23:50.171Z,74.50
2022-12-25T14:26:19.040Z,73.96
2022-12-25T14:28:51.670Z,74.38
2022-12-25T14:31:19.497Z,74.64
2022-12-25T14:33:46.914Z,75.08
2022-12-25T14:36:14.267Z,74.90
2022-12-25T14:38:42.561Z,75.77
2022-12-25T14:41:24.194Z,76.54
2022-12-25T14:43:55.739Z,75.75
2022-12-25T14:46:27.796Z,75.62
2022-12-25T14:49:20.864Z,76.47
2022-12-25T14:51:47.473Z,77.01
2022-12-25T14:54:17.081Z,76.93
2022-12-25T14:56:48.375Z,76.49
2022-12-25T14:59:20.630Z,77.06
2022-12-25T15:01:57.609Z,77.14
2022-12-25T15:04:26.173Z,77.77
2022-12-25T15:07:00.851Z,77.69
2022-12-25T15:09:29.933Z,77.38
2022-12-25T15:11:56.935Z,77.50
2022-12-25T15:14:24.975Z,78.10
2022-12-25T15:16:54.761Z,78.66
2022-12-25T15:19:37.428Z,78.00
2022-12-25T15:22:05.023Z,78.49
2022-12-25T15:24:31.562Z,78.64
2022-12-25T15:27:00.374Z,79.06
2022-12-25T15:30:00.224Z,78.81
2022-12-25T15:32:23.800Z,79.65
2022-12-25T15:34:50.658Z,80.25
2022-12-25T15:37:18.542Z,80.17
2022-12-25T15:39:45.755Z,79.37
2022-12-25T15:42:14.846Z,79.88
2022-12-25T15:44:42.626Z,80.33
2022-12-25T15:47:13.309Z,80.83
2022-12-25T15:49:39.841Z,80.61
2022-12-25T15:52:08.196Z,81.31
2022-12-25T15:54:34.856Z,81.47
2022-12-25T15:57:04.113Z,81.26
2022-12-25T15:59:31.297Z,81.56
2022-12-25T16:02:00.994Z,81.88
2022-12-25T16:04:28.956Z,81.27
2022-12-25T16:06:56.094Z,81.06
2022-12-25T16:09:22.699Z,82.15
2022-12-25T16:11:50.173Z,82.33
2022-12-25T16:14:16.916Z,82.03
2022-12-25T16:16:43.451Z,82.72
2022-12-25T16:19:10.065Z,82.75
2022-12-25T16:21:43.034Z,83.55
2022-12-25T16:24:09.608Z,83.41
2022-12-25T16:26:36.178Z,84.99
2022-12-25T16:29:07.314Z,83.76
2022-12-25T16:31:35.530Z,84.37
2022-12-25T16:34:02.240Z,84.36
2022-12-25T16:36:28.951Z,83.90
2022-12-25T16:38:55.541Z,83.77
2022-12-25T16:41:22.220Z,83.02
2022-12-25T16:43:48.901Z,83.37
2022-12-25T16:46:18.215Z,84.28
2022-12-25T16:48:45.234Z,84.17
2022-12-25T16:51:17.651Z,84.21
2022-12-25T16:53:44.746Z,84.57
2022-12-25T16:56:16.371Z,85.55
2022-12-25T16:58:46.602Z,85.41
2022-12-25T17:01:16.737Z,84.38
2022-12-25T17:03:43.765Z,84.06
2022-12-25T17:06:19.823Z,83.86
2022-12-25T17:08:47.439Z,83.39
2022-12-25T17:11:15.451Z,82.89
2022-12-25T17:13:46.256Z,83.65
2022-12-25T17:16:25.438Z,83.70
2022-12-25T17:18:56.857Z,83.87
2022-12-25T17:21:25.015Z,83.97
2022-12-25T17:23:55.328Z,83.77
2022-12-25T17:26:24.801Z,83.70
2022-12-25T17:28:51.774Z,83.74
2022-12-25T17:31:18.916Z,83.89
2022-12-25T17:33:45.848Z,83.28
2022-12-25T17:36:15.928Z,83.04
2022-12-25T17:38:43.776Z,83.29
2022-12-25T17:41:13.148Z,83.03
2022-12-25T17:43:42.099Z,83.37
2022-12-25T17:46:12.422Z,83.30
2022-12-25T17:48:39.015Z,83.18
2022-12-25T17:51:07.526Z,83.45
2022-12-25T17:53:39.092Z,83.03
2022-12-25T17:56:06.507Z,83.24
2022-12-25T17:58:33.098Z,83.07
2022-12-25T18:01:09.107Z,82.75
2022-12-25T18:03:36.799Z,83.19
2022-12-25T18:06:05.009Z,83.20
2022-12-25T18:08:38.652Z,83.34
2022-12-25T18:11:08.761Z,83.64
2022-12-25T18:13:35.980Z,83.45
2022-12-25T18:16:07.205Z,84.66
2022-12-25T18:18:34.722Z,83.73
2022-12-25T18:21:02.241Z,85.10
2022-12-25T18:23:29.380Z,84.85
2022-12-25T18:25:56.140Z,85.32
2022-12-25T18:28:22.754Z,85.23
2022-12-25T18:30:49.834Z,85.55
2022-12-25T18:33:16.418Z,84.99
2022-12-25T18:35:44.324Z,85.04
2022-12-25T18:38:11.708Z,85.72
2022-12-25T18:40:47.055Z,86.98
2022-12-25T18:43:14.641Z,87.72
2022-12-25T18:45:42.310Z,88.44
2022-12-25T18:48:10.392Z,87.50
2022-12-25T18:50:39.509Z,87.61
2022-12-25T18:53:06.926Z,87.30
2022-12-25T18:55:33.593Z,87.34
2022-12-25T18:58:00.245Z,87.21
2022-12-25T19:00:28.080Z,87.12
2022-12-25T19:02:59.383Z,87.43
2022-12-25T19:05:26.271Z,86.64
2022-12-25T19:07:53.043Z,87.37
2022-12-25T19:10:19.684Z,86.61
2022-12-25T19:12:46.333Z,87.16
2022-12-25T19:15:13.288Z,86.67
2022-12-25T19:17:39.996Z,86.79
2022-12-25T19:20:07.532Z,87.52
2022-12-25T19:22:34.030Z,87.22
2022-12-25T19:25:00.635Z,87.20
2022-12-25T19:27:27.208Z,87.37
2022-12-25T19:29:53.732Z,86.24
2022-12-25T19:32:20.413Z,86.41
2022-12-25T19:34:46.994Z,86.85
2022-12-25T19:37:15.080Z,86.89
2022-12-25T19:39:46.580Z,87.13
2022-12-25T19:42:16.029Z,86.77
2022-12-25T19:44:43.302Z,86.63
2022-12-25T19:47:11.055Z,87.09
2022-12-25T19:49:37.586Z,86.46
2022-12-25T19:52:04.338Z,87.05
2022-12-25T19:54:31.284Z,87.37
2022-12-25T19:56:57.997Z,87.52
2022-12-25T19:59:24.576Z,88.72
2022-12-25T20:01:51.286Z,87.65
2022-12-25T20:04:18.288Z,89.13
2022-12-25T20:06:45.342Z,88.81
2022-12-25T20:09:21.015Z,88.78
2022-12-25T20:11:48.739Z,88.34
2022-12-25T20:14:17.150Z,88.65
2022-12-25T20:16:44.659Z,88.15
2022-12-25T20:19:12.956Z,87.82
2022-12-25T20:21:40.225Z,87.84
2022-12-25T20:24:10.182Z,88.12
2022-12-25T20:26:37.984Z,88.00
2022-12-25T20:29:05.060Z,88.10
2022-12-25T20:31:34.386Z,88.17
2022-12-25T20:34:05.841Z,88.48
2022-12-25T20:36:37.283Z,88.13
2022-12-25T20:39:09.427Z,88.39
2022-12-25T20:41:37.205Z,88.22
2022-12-25T20:44:04.366Z,87.67
2022-12-25T20:46:31.120Z,88.05
2022-12-25T20:48:57.757Z,88.42
2022-12-25T20:51:26.461Z,88.41
2022-12-25T20:53:54.258Z,88.43
2022-12-25T20:56:23.346Z,88.95
2022-12-25T20:58:58.316Z,88.92
2022-12-25T21:01:26.056Z,88.71
2022-12-25T21:03:53.190Z,89.44
2022-12-25T21:06:20.903Z,88.84
2022-12-25T21:08:47.593Z,88.90
2022-12-25T21:11:15.595Z,88.89
2022-12-25T21:13:45.208Z,88.62
2022-12-25T21:16:15.416Z,88.83
2022-12-25T21:18:42.211Z,89.76
2022-12-25T21:21:09.634Z,89.59
2022-12-25T21:23:38.916Z,88.72
2022-12-25T21:26:19.551Z,87.95
2022-12-25T21:28:51.317Z,88.21
2022-12-25T21:31:19.017Z,88.99
2022-12-25T21:33:52.322Z,88.70
2022-12-25T21:36:26.999Z,89.13
2022-12-25T21:39:04.023Z,88.39
2022-12-25T21:41:31.870Z,88.37
2022-12-25T21:43:59.070Z,88.48
2022-12-25T21:46:26.562Z,89.10
2022-12-25T21:48:54.438Z,88.83
2022-12-25T21:51:43.317Z,88.65
2022-12-25T21:54:10.695Z,88.43
2022-12-25T21:56:44.096Z,88.48
2022-12-25T21:59:22.123Z,88.68
2022-12-25T22:01:50.600Z,88.51
2022-12-25T22:04:20.002Z,88.31
2022-12-25T22:07:05.571Z,88.54
2022-12-25T22:09:32.374Z,88.54
2022-12-25T22:12:17.922Z,88.72
2022-12-25T22:14:54.706Z,89.29
2022-12-25T22:17:46.378Z,89.66
2022-12-25T22:20:17.650Z,89.47
2022-12-25T22:22:44.691Z,89.88
2022-12-25T22:25:12.294Z,89.45
2022-12-25T22:27:40.123Z,89.65
2022-12-25T22:30:09.558Z,89.53
2022-12-25T22:32:36.331Z,89.42
2022-12-25T22:35:03.531Z,90.24
2022-12-25T22:37:30.074Z,90.48
2022-12-25T22:39:57.522Z,90.08
2022-12-25T22:42:24.439Z,90.36
2022-12-25T22:44:51.113Z,90.34
2022-12-25T22:47:17.736Z,89.98
2022-12-25T22:49:44.295Z,90.55
2022-12-25T22:52:10.985Z,90.78
2022-12-25T22:54:37.655Z,90.36
2022-12-25T22:57:05.279Z,91.05
2022-12-25T22:59:32.976Z,90.67
2022-12-25T23:02:00.755Z,91.13
2022-12-25T23:04:28.320Z,90.70
2022-12-25T23:06:54.952Z,91.06
2022-12-25T23:09:27.979Z,90.55
2022-12-25T23:11:58.692Z,90.22
2022-12-25T23:14:39.459Z,90.63
2022-12-25T23:17:31.671Z,90.65
2022-12-25T23:20:18.894Z,90.21
2022-12-25T23:23:04.990Z,90.37
2022-12-25T23:25:50.802Z,90.24
2022-12-25T23:28:39.818Z,90.14
2022-12-25T23:31:07.010Z,90.33
2022-12-25T23:33:33.719Z,89.94
2022-12-25T23:36:00.260Z,90.01
2022-12-25T23:38:26.859Z,90.32
2022-12-25T23:40:53.437Z,89.55
2022-12-25T23:43:19.983Z,89.60
2022-12-25T23:45:46.535Z,90.08
2022-12-25T23:48:13.079Z,90.25
2022-12-25T23:50:39.618Z,89.96
2022-12-25T23:53:06.122Z,90.74
2022-12-25T23:55:33.521Z,90.83
2022-12-25T23:58:00.074Z,90.79
